createdAt,value
2018-06-30T00:00:20.925Z,8.00
2018-06-30T00:01:20.921Z,4.00
2018-06-30T00:02:20.918Z,4.00
2018-06-30T00:03:20.931Z,8.00
2018-06-30T00:04:20.926Z,4.00
2018-06-30T00:05:20.942Z,4.00
2018-06-30T00:06:20.930Z,4.00
2018-06-30T00:07:20.940Z,4.00
2018-06-30T00:08:20.937Z,4.00
2018-06-30T00:09:20.943Z,8.00
2018-06-30T00:10:21.007Z,8.00
2018-06-30T00:11:20.961Z,8.00
2018-06-30T00:12:20.951Z,4.00
2018-06-30T00:13:20.953Z,8.00
2018-06-30T00:14:20.961Z,8.00
2018-06-30T00:15:20.965Z,8.00
2018-06-30T00:16:20.967Z,8.00
2018-06-30T00:17:20.963Z,8.00
2018-06-30T00:18:20.967Z,8.00
2018-06-30T00:19:20.971Z,8.00
2018-06-30T00:20:20.986Z,8.00
2018-06-30T00:21:20.975Z,8.00
2018-06-30T00:22:20.977Z,8.00
2018-06-30T00:23:20.978Z,8.00
2018-06-30T00:24:20.997Z,8.00
2018-06-30T00:25:22.078Z,8.00
2018-06-30T00:26:22.048Z,8.00
2018-06-30T00:27:22.088Z,8.00
2018-06-30T00:28:22.056Z,8.00
2018-06-30T00:29:21.107Z,8.00
2018-06-30T00:30:22.133Z,8.00
2018-06-30T00:31:21.002Z,8.00
2018-06-30T00:32:21.003Z,8.00
2018-06-30T00:33:21.006Z,8.00
2018-06-30T00:34:21.010Z,8.00
2018-06-30T00:35:21.012Z,8.00
2018-06-30T00:36:21.443Z,8.00
2018-06-30T00:37:21.019Z,8.00
2018-06-30T00:38:21.150Z,8.00
2018-06-30T00:39:21.021Z,8.00
2018-06-30T00:40:21.024Z,8.00
2018-06-30T00:41:21.030Z,8.00
2018-06-30T00:42:21.039Z,8.00
2018-06-30T00:43:21.037Z,8.00
2018-06-30T00:44:21.034Z,8.00
2018-06-30T00:45:21.055Z,8.00
2018-06-30T00:46:21.045Z,8.00
2018-06-30T00:47:21.042Z,8.00
2018-06-30T00:48:21.046Z,8.00
2018-06-30T00:49:21.049Z,8.00
2018-06-30T00:50:21.047Z,8.00
2018-06-30T00:51:21.054Z,8.00
2018-06-30T00:52:21.057Z,8.00
2018-06-30T00:53:21.055Z,8.00
2018-06-30T00:54:21.058Z,8.00
2018-06-30T00:55:21.062Z,8.00
2018-06-30T00:56:21.063Z,8.00
2018-06-30T00:57:21.066Z,8.00
2018-06-30T00:58:21.067Z,8.00
2018-06-30T00:59:21.070Z,8.00
2018-06-30T01:00:21.102Z,8.00
2018-06-30T01:01:21.081Z,8.00
2018-06-30T01:02:21.077Z,8.00
2018-06-30T01:03:21.080Z,4.00
2018-06-30T01:04:21.083Z,4.00
2018-06-30T01:05:21.083Z,4.00
2018-06-30T01:06:21.086Z,4.00
2018-06-30T01:07:21.089Z,4.00
2018-06-30T01:08:21.091Z,4.00
2018-06-30T01:09:21.095Z,4.00
2018-06-30T01:10:21.097Z,4.00
2018-06-30T01:11:21.099Z,4.00
2018-06-30T01:12:21.111Z,4.00
2018-06-30T01:13:21.112Z,4.00
2018-06-30T01:14:21.106Z,4.00
2018-06-30T01:15:21.123Z,4.00
2018-06-30T01:16:21.115Z,8.00
2018-06-30T01:17:21.114Z,4.00
2018-06-30T01:18:21.115Z,8.00
2018-06-30T01:19:21.118Z,4.00
2018-06-30T01:20:21.120Z,8.00
2018-06-30T01:21:21.131Z,8.00
2018-06-30T01:22:21.124Z,4.00
2018-06-30T01:23:21.127Z,4.00
2018-06-30T01:24:21.129Z,4.00
2018-06-30T01:25:21.132Z,4.00
2018-06-30T01:26:21.132Z,4.00
2018-06-30T01:27:21.136Z,8.00
2018-06-30T01:28:21.142Z,4.00
2018-06-30T01:29:21.140Z,4.00
2018-06-30T01:30:21.142Z,4.00
2018-06-30T01:31:21.144Z,4.00
2018-06-30T01:32:21.153Z,4.00
2018-06-30T01:33:21.147Z,4.00
2018-06-30T01:34:21.148Z,4.00
2018-06-30T01:35:21.156Z,4.00
2018-06-30T01:36:21.155Z,4.00
2018-06-30T01:37:21.158Z,4.00
2018-06-30T01:38:21.160Z,8.00
2018-06-30T01:39:21.160Z,4.00
2018-06-30T01:40:21.165Z,4.00
2018-06-30T01:41:21.173Z,4.00
2018-06-30T01:42:21.168Z,8.00
2018-06-30T01:43:21.175Z,4.00
2018-06-30T01:44:21.171Z,4.00
2018-06-30T01:45:21.174Z,8.00
2018-06-30T01:46:21.174Z,4.00
2018-06-30T01:47:21.180Z,4.00
2018-06-30T01:48:21.180Z,8.00
2018-06-30T01:49:21.204Z,4.00
2018-06-30T01:50:21.186Z,8.00
2018-06-30T01:51:21.187Z,4.00
2018-06-30T01:52:21.193Z,8.00
2018-06-30T01:53:21.189Z,8.00
2018-06-30T01:54:21.191Z,8.00
2018-06-30T01:55:21.194Z,8.00
2018-06-30T01:56:21.199Z,4.00
2018-06-30T01:57:21.202Z,4.00
2018-06-30T01:58:21.203Z,8.00
2018-06-30T01:59:21.203Z,4.00
2018-06-30T02:00:21.205Z,8.00
2018-06-30T02:01:21.206Z,8.00
2018-06-30T02:02:21.211Z,8.00
2018-06-30T02:03:21.209Z,8.00
2018-06-30T02:04:21.214Z,8.00
2018-06-30T02:05:21.214Z,8.00
2018-06-30T02:06:21.214Z,8.00
2018-06-30T02:07:21.218Z,8.00
2018-06-30T02:08:21.225Z,8.00
2018-06-30T02:09:21.222Z,8.00
2018-06-30T02:10:21.223Z,8.00
2018-06-30T02:11:21.230Z,8.00
2018-06-30T02:12:21.228Z,8.00
2018-06-30T02:13:21.233Z,8.00
2018-06-30T02:14:21.231Z,8.00
2018-06-30T02:15:21.234Z,8.00
2018-06-30T02:16:21.237Z,8.00
2018-06-30T02:17:21.242Z,4.00
2018-06-30T02:18:21.240Z,4.00
2018-06-30T02:19:21.257Z,4.00
2018-06-30T02:20:21.246Z,4.00
2018-06-30T02:21:21.252Z,4.00
2018-06-30T02:22:21.248Z,8.00
2018-06-30T02:23:21.249Z,8.00
2018-06-30T02:24:21.254Z,8.00
2018-06-30T02:25:22.550Z,8.00
2018-06-30T02:26:21.258Z,8.00
2018-06-30T02:27:21.262Z,8.00
2018-06-30T02:28:21.258Z,8.00
2018-06-30T02:29:21.262Z,8.00
2018-06-30T02:30:21.261Z,8.00
2018-06-30T02:31:21.263Z,12.00
2018-06-30T02:32:21.266Z,8.00
2018-06-30T02:33:21.271Z,8.00
2018-06-30T02:34:21.268Z,4.00
2018-06-30T02:35:21.294Z,8.00
2018-06-30T02:36:21.276Z,4.00
2018-06-30T02:37:21.276Z,8.00
2018-06-30T02:38:21.277Z,4.00
2018-06-30T02:39:21.296Z,8.00
2018-06-30T02:40:21.278Z,8.00
2018-06-30T02:41:21.280Z,12.00
2018-06-30T02:42:21.281Z,8.00
2018-06-30T02:43:21.282Z,12.00
2018-06-30T02:44:21.288Z,12.00
2018-06-30T02:45:21.288Z,12.00
2018-06-30T02:46:21.288Z,16.00
2018-06-30T02:47:21.288Z,16.00
2018-06-30T02:48:21.297Z,16.00
2018-06-30T02:49:21.292Z,16.00
2018-06-30T02:50:21.297Z,20.00
2018-06-30T02:51:21.295Z,24.00
2018-06-30T02:52:21.295Z,24.00
2018-06-30T02:53:21.300Z,24.00
2018-06-30T02:54:21.301Z,28.00
2018-06-30T02:55:21.298Z,32.00
2018-06-30T02:56:21.306Z,32.00
2018-06-30T02:57:21.302Z,40.00
2018-06-30T02:58:21.302Z,40.00
2018-06-30T02:59:21.302Z,44.00
2018-06-30T03:00:21.306Z,44.00
2018-06-30T03:01:21.305Z,48.00
2018-06-30T03:02:21.306Z,56.00
2018-06-30T03:03:21.308Z,60.00
2018-06-30T03:04:21.311Z,64.00
2018-06-30T03:05:21.310Z,68.00
2018-06-30T03:06:21.314Z,72.00
2018-06-30T03:07:21.313Z,76.00
2018-06-30T03:08:21.311Z,80.00
2018-06-30T03:09:21.313Z,84.00
2018-06-30T03:10:21.314Z,92.00
2018-06-30T03:11:21.318Z,100.00
2018-06-30T03:12:21.316Z,108.00
2018-06-30T03:13:21.322Z,112.00
2018-06-30T03:14:21.373Z,116.00
2018-06-30T03:15:21.319Z,120.00
2018-06-30T03:16:21.318Z,128.00
2018-06-30T03:17:21.321Z,132.00
2018-06-30T03:18:36.158Z,136.00
2018-06-30T03:19:21.321Z,144.00
2018-06-30T03:20:21.322Z,148.00
2018-06-30T03:21:21.328Z,152.00
2018-06-30T03:22:21.323Z,160.00
2018-06-30T03:23:21.324Z,168.00
2018-06-30T03:24:21.324Z,172.00
2018-06-30T03:25:21.325Z,176.00
2018-06-30T03:26:21.325Z,176.00
2018-06-30T03:27:21.328Z,180.00
2018-06-30T03:28:21.330Z,184.00
2018-06-30T03:29:21.328Z,188.00
2018-06-30T03:30:21.329Z,196.00
2018-06-30T03:31:21.335Z,200.00
2018-06-30T03:32:21.331Z,200.00
2018-06-30T03:33:21.330Z,204.00
2018-06-30T03:34:21.331Z,200.00
2018-06-30T03:35:21.331Z,208.00
2018-06-30T03:36:21.334Z,224.00
2018-06-30T03:37:21.334Z,236.00
2018-06-30T03:38:21.333Z,252.00
2018-06-30T03:39:21.335Z,256.00
2018-06-30T03:40:21.335Z,280.00
2018-06-30T03:41:21.340Z,300.00
2018-06-30T03:42:21.336Z,312.00
2018-06-30T03:43:21.338Z,324.00
2018-06-30T03:44:21.338Z,340.00
2018-06-30T03:45:21.341Z,360.00
2018-06-30T03:46:21.392Z,376.00
2018-06-30T03:47:21.341Z,392.00
2018-06-30T03:48:21.350Z,396.00
2018-06-30T03:49:21.341Z,380.00
2018-06-30T03:50:21.342Z,360.00
2018-06-30T03:51:21.344Z,344.00
2018-06-30T03:52:21.343Z,324.00
2018-06-30T03:53:21.344Z,276.00
2018-06-30T03:54:21.344Z,252.00
2018-06-30T03:55:21.345Z,244.00
2018-06-30T03:56:21.345Z,248.00
2018-06-30T03:57:21.346Z,256.00
2018-06-30T03:58:21.346Z,276.00
2018-06-30T03:59:21.347Z,288.00
2018-06-30T04:00:21.351Z,312.00
2018-06-30T04:01:21.351Z,328.00
2018-06-30T04:02:21.348Z,352.00
2018-06-30T04:03:21.348Z,392.00
2018-06-30T04:04:21.350Z,372.00
2018-06-30T04:05:21.351Z,388.00
2018-06-30T04:06:21.352Z,376.00
2018-06-30T04:07:21.352Z,368.00
2018-06-30T04:08:21.359Z,368.00
2018-06-30T04:09:21.356Z,392.00
2018-06-30T04:10:21.354Z,416.00
2018-06-30T04:11:21.368Z,452.00
2018-06-30T04:12:21.355Z,508.00
2018-06-30T04:13:21.355Z,588.00
2018-06-30T04:14:21.355Z,688.00
2018-06-30T04:15:21.371Z,796.00
2018-06-30T04:16:21.356Z,916.00
2018-06-30T04:17:21.360Z,996.00
2018-06-30T04:18:21.358Z,1120.00
2018-06-30T04:19:21.356Z,1240.00
2018-06-30T04:20:21.359Z,1288.00
2018-06-30T04:21:21.359Z,1372.00
2018-06-30T04:22:21.358Z,1364.00
2018-06-30T04:23:21.358Z,1280.00
2018-06-30T04:24:21.360Z,1220.00
2018-06-30T04:25:21.360Z,1152.00
2018-06-30T04:26:21.361Z,1048.00
2018-06-30T04:27:21.361Z,940.00
2018-06-30T04:28:21.362Z,860.00
2018-06-30T04:29:21.362Z,844.00
2018-06-30T04:30:21.364Z,844.00
2018-06-30T04:31:21.373Z,772.00
2018-06-30T04:32:21.365Z,728.00
2018-06-30T04:33:21.366Z,748.00
2018-06-30T04:34:21.368Z,844.00
2018-06-30T04:35:21.373Z,988.00
2018-06-30T04:36:21.414Z,1120.00
2018-06-30T04:37:21.368Z,1224.00
2018-06-30T04:38:21.368Z,1276.00
2018-06-30T04:39:21.368Z,1348.00
2018-06-30T04:40:21.373Z,1392.00
2018-06-30T04:41:21.372Z,1384.00
2018-06-30T04:42:21.372Z,1288.00
2018-06-30T04:43:21.371Z,1204.00
2018-06-30T04:44:21.371Z,1160.00
2018-06-30T04:45:21.372Z,1104.00
2018-06-30T04:46:21.371Z,1072.00
2018-06-30T04:47:21.372Z,1044.00
2018-06-30T04:48:21.375Z,1092.00
2018-06-30T04:49:21.372Z,1256.00
2018-06-30T04:50:21.379Z,1732.00
2018-06-30T04:51:21.377Z,1896.00
2018-06-30T04:52:21.374Z,3640.00
2018-06-30T04:53:21.374Z,3628.00
2018-06-30T04:54:21.382Z,2268.00
2018-06-30T04:55:21.375Z,2016.00
2018-06-30T04:56:21.375Z,1904.00
2018-06-30T04:57:21.377Z,1724.00
2018-06-30T04:58:21.375Z,1644.00
2018-06-30T04:59:21.376Z,1620.00
2018-06-30T05:00:21.377Z,1600.00
2018-06-30T05:01:21.377Z,1480.00
2018-06-30T05:02:21.381Z,1380.00
2018-06-30T05:03:21.377Z,1276.00
2018-06-30T05:04:21.380Z,2924.00
2018-06-30T05:05:21.379Z,1628.00
2018-06-30T05:06:21.386Z,1748.00
2018-06-30T05:07:21.383Z,4852.00
2018-06-30T05:08:21.379Z,3644.00
2018-06-30T05:09:21.380Z,4352.00
2018-06-30T05:10:21.379Z,4452.00
2018-06-30T05:11:21.379Z,5736.00
2018-06-30T05:12:21.381Z,2516.00
2018-06-30T05:13:21.386Z,1980.00
2018-06-30T05:14:21.382Z,1716.00
2018-06-30T05:15:21.382Z,1656.00
2018-06-30T05:16:21.386Z,3540.00
2018-06-30T05:17:21.384Z,10060.00
2018-06-30T05:18:21.384Z,1972.00
2018-06-30T05:19:21.388Z,2008.00
2018-06-30T05:20:21.389Z,3396.00
2018-06-30T05:21:21.388Z,12736.00
2018-06-30T05:22:21.387Z,7468.00
2018-06-30T05:23:21.391Z,1796.00
2018-06-30T05:24:21.390Z,1544.00
2018-06-30T05:25:21.390Z,1616.00
2018-06-30T05:26:21.394Z,1824.00
2018-06-30T05:27:21.393Z,8924.00
2018-06-30T05:28:21.393Z,8520.00
2018-06-30T05:29:21.396Z,3792.00
2018-06-30T05:30:21.403Z,2184.00
2018-06-30T05:31:21.396Z,1756.00
2018-06-30T05:32:21.400Z,1536.00
2018-06-30T05:33:21.418Z,1236.00
2018-06-30T05:34:21.402Z,1212.00
2018-06-30T05:35:21.401Z,1356.00
2018-06-30T05:36:21.403Z,1632.00
2018-06-30T05:37:21.408Z,2228.00
2018-06-30T05:38:21.407Z,4180.00
2018-06-30T05:39:21.406Z,14784.00
2018-06-30T05:40:21.407Z,3212.00
2018-06-30T05:41:21.408Z,3076.00
2018-06-30T05:42:21.407Z,7640.00
2018-06-30T05:43:21.409Z,6320.00
2018-06-30T05:44:21.411Z,7080.00
2018-06-30T05:45:21.412Z,7384.00
2018-06-30T05:46:21.415Z,7664.00
2018-06-30T05:47:21.414Z,7576.00
2018-06-30T05:48:21.418Z,6204.00
2018-06-30T05:49:21.416Z,7136.00
2018-06-30T05:50:21.421Z,7400.00
2018-06-30T05:51:21.418Z,7620.00
2018-06-30T05:52:21.421Z,7648.00
2018-06-30T05:53:21.422Z,3068.00
2018-06-30T05:54:21.440Z,7856.00
2018-06-30T05:55:21.424Z,2756.00
2018-06-30T05:56:21.424Z,9004.00
2018-06-30T05:57:21.430Z,11316.00
2018-06-30T05:58:21.430Z,11156.00
2018-06-30T05:59:21.467Z,12868.00
2018-06-30T06:00:21.433Z,10844.00
2018-06-30T06:01:21.437Z,8556.00
2018-06-30T06:02:21.436Z,6880.00
2018-06-30T06:03:21.437Z,8004.00
2018-06-30T06:04:21.439Z,8044.00
2018-06-30T06:05:21.443Z,8140.00
2018-06-30T06:06:21.442Z,8016.00
2018-06-30T06:07:21.444Z,7876.00
2018-06-30T06:08:21.447Z,7912.00
2018-06-30T06:09:21.471Z,8000.00
2018-06-30T06:10:21.463Z,7744.00
2018-06-30T06:11:21.452Z,7812.00
2018-06-30T06:12:21.453Z,7976.00
2018-06-30T06:13:21.457Z,7976.00
2018-06-30T06:14:21.456Z,8004.00
2018-06-30T06:15:21.537Z,12852.00
2018-06-30T06:16:21.461Z,17504.00
2018-06-30T06:17:21.467Z,14680.00
2018-06-30T06:18:21.464Z,11676.00
2018-06-30T06:19:21.466Z,10656.00
2018-06-30T06:20:21.469Z,13464.00
2018-06-30T06:21:21.471Z,11784.00
2018-06-30T06:22:21.477Z,7916.00
2018-06-30T06:23:21.525Z,7796.00
2018-06-30T06:24:21.479Z,7740.00
2018-06-30T06:25:21.501Z,7568.00
2018-06-30T06:26:21.482Z,7564.00
2018-06-30T06:27:21.484Z,7424.00
2018-06-30T06:28:21.492Z,7224.00
2018-06-30T06:29:21.488Z,7248.00
2018-06-30T06:30:21.491Z,7332.00
2018-06-30T06:31:21.498Z,7520.00
2018-06-30T06:32:21.539Z,7448.00
2018-06-30T06:33:21.498Z,6064.00
2018-06-30T06:34:21.499Z,7276.00
2018-06-30T06:35:21.501Z,7400.00
2018-06-30T06:36:21.504Z,7084.00
2018-06-30T06:37:21.506Z,7132.00
2018-06-30T06:38:21.509Z,7064.00
2018-06-30T06:39:21.515Z,7024.00
2018-06-30T06:40:21.515Z,5760.00
2018-06-30T06:41:21.516Z,1600.00
2018-06-30T06:42:21.518Z,1444.00
2018-06-30T06:43:21.561Z,2568.00
2018-06-30T06:44:21.524Z,1728.00
2018-06-30T06:45:21.529Z,6240.00
2018-06-30T06:46:21.531Z,6884.00
2018-06-30T06:47:21.532Z,6756.00
2018-06-30T06:48:21.533Z,6528.00
2018-06-30T06:49:21.534Z,6024.00
2018-06-30T06:50:21.536Z,5864.00
2018-06-30T06:51:21.538Z,5676.00
2018-06-30T06:52:21.541Z,5592.00
2018-06-30T06:53:21.546Z,5484.00
2018-06-30T06:54:21.544Z,5240.00
2018-06-30T06:55:21.547Z,5184.00
2018-06-30T06:56:21.598Z,5068.00
2018-06-30T06:57:21.551Z,4920.00
2018-06-30T06:58:21.553Z,4736.00
2018-06-30T06:59:21.556Z,4648.00
2018-06-30T07:00:21.557Z,4528.00
2018-06-30T07:01:21.560Z,4368.00
2018-06-30T07:02:21.564Z,4212.00
2018-06-30T07:03:21.562Z,4004.00
2018-06-30T07:04:21.567Z,3752.00
2018-06-30T07:05:21.570Z,3480.00
2018-06-30T07:06:21.570Z,3148.00
2018-06-30T07:07:21.582Z,2804.00
2018-06-30T07:08:21.576Z,2480.00
2018-06-30T07:09:21.577Z,2232.00
2018-06-30T07:10:21.580Z,2048.00
2018-06-30T07:11:21.582Z,1904.00
2018-06-30T07:12:21.582Z,1772.00
2018-06-30T07:13:21.585Z,1656.00
2018-06-30T07:14:21.586Z,1564.00
2018-06-30T07:15:21.593Z,1492.00
2018-06-30T07:16:21.591Z,1448.00
2018-06-30T07:17:21.593Z,1412.00
2018-06-30T07:18:21.594Z,1380.00
2018-06-30T07:19:21.632Z,1352.00
2018-06-30T07:20:21.599Z,1328.00
2018-06-30T07:21:21.608Z,1308.00
2018-06-30T07:22:21.785Z,1284.00
2018-06-30T07:23:21.607Z,1264.00
2018-06-30T07:24:21.610Z,1236.00
2018-06-30T07:25:21.609Z,1216.00
2018-06-30T07:26:21.615Z,1196.00
2018-06-30T07:27:21.611Z,1184.00
2018-06-30T07:28:21.616Z,1168.00
2018-06-30T07:29:21.623Z,1164.00
2018-06-30T07:30:21.618Z,1164.00
2018-06-30T07:31:21.621Z,1168.00
2018-06-30T07:32:21.655Z,1172.00
2018-06-30T07:33:21.625Z,1176.00
2018-06-30T07:34:21.625Z,1176.00
2018-06-30T07:35:21.628Z,1176.00
2018-06-30T07:36:21.630Z,1180.00
2018-06-30T07:37:21.643Z,1180.00
2018-06-30T07:38:21.634Z,1180.00
2018-06-30T07:39:21.636Z,1176.00
2018-06-30T07:40:21.666Z,1172.00
2018-06-30T07:41:21.642Z,1168.00
2018-06-30T07:42:21.640Z,1164.00
2018-06-30T07:43:21.664Z,1160.00
2018-06-30T07:44:21.645Z,1152.00
2018-06-30T07:45:21.648Z,1144.00
2018-06-30T07:46:21.647Z,1136.00
2018-06-30T07:47:21.653Z,1124.00
2018-06-30T07:48:21.654Z,1108.00
2018-06-30T07:49:21.656Z,1096.00
2018-06-30T07:50:21.736Z,1088.00
2018-06-30T07:51:21.658Z,1092.00
2018-06-30T07:52:21.667Z,1096.00
2018-06-30T07:53:21.662Z,1096.00
2018-06-30T07:54:21.666Z,1092.00
2018-06-30T07:55:21.664Z,1088.00
2018-06-30T07:56:21.685Z,1080.00
2018-06-30T07:57:21.695Z,1068.00
2018-06-30T07:58:21.678Z,1060.00
2018-06-30T07:59:21.671Z,1052.00
2018-06-30T08:00:21.677Z,1036.00
2018-06-30T08:01:21.675Z,1036.00
2018-06-30T08:02:21.676Z,1036.00
2018-06-30T08:03:21.678Z,1036.00
2018-06-30T08:04:21.688Z,1024.00
2018-06-30T08:05:21.686Z,1036.00
2018-06-30T08:06:21.740Z,1040.00
2018-06-30T08:07:21.752Z,1052.00
2018-06-30T08:08:21.687Z,1048.00
2018-06-30T08:09:21.689Z,1056.00
2018-06-30T08:10:21.690Z,1060.00
2018-06-30T08:11:21.697Z,1068.00
2018-06-30T08:12:21.695Z,1088.00
2018-06-30T08:13:21.696Z,1080.00
2018-06-30T08:14:21.698Z,1084.00
2018-06-30T08:15:21.700Z,1092.00
2018-06-30T08:16:21.710Z,1108.00
2018-06-30T08:17:21.705Z,1116.00
2018-06-30T08:18:21.707Z,1128.00
2018-06-30T08:19:21.708Z,1140.00
2018-06-30T08:20:21.710Z,1140.00
2018-06-30T08:21:21.711Z,1148.00
2018-06-30T08:22:21.712Z,1164.00
2018-06-30T08:23:21.713Z,1180.00
2018-06-30T08:24:21.715Z,1196.00
2018-06-30T08:25:21.717Z,1200.00
2018-06-30T08:26:21.718Z,1212.00
2018-06-30T08:27:21.722Z,1232.00
2018-06-30T08:28:21.722Z,1256.00
2018-06-30T08:29:21.725Z,1300.00
2018-06-30T08:30:21.730Z,1308.00
2018-06-30T08:31:21.733Z,1360.00
2018-06-30T08:32:21.747Z,2084.00
2018-06-30T08:33:21.733Z,3288.00
2018-06-30T08:34:21.735Z,3736.00
2018-06-30T08:35:21.788Z,3396.00
2018-06-30T08:36:21.774Z,3464.00
2018-06-30T08:37:21.741Z,2996.00
2018-06-30T08:38:21.743Z,3000.00
2018-06-30T08:39:21.745Z,3956.00
2018-06-30T08:40:21.752Z,4260.00
2018-06-30T08:41:21.752Z,4280.00
2018-06-30T08:42:21.754Z,4344.00
2018-06-30T08:43:21.757Z,4396.00
2018-06-30T08:44:21.763Z,4392.00
2018-06-30T08:45:21.766Z,4444.00
2018-06-30T08:46:21.775Z,4484.00
2018-06-30T08:47:21.784Z,4512.00
2018-06-30T08:48:21.808Z,4568.00
2018-06-30T08:49:21.790Z,4576.00
2018-06-30T08:50:21.788Z,4608.00
2018-06-30T08:51:21.793Z,4628.00
2018-06-30T08:52:21.803Z,4692.00
2018-06-30T08:53:21.812Z,4728.00
2018-06-30T08:54:21.812Z,4736.00
2018-06-30T08:55:21.873Z,4808.00
2018-06-30T08:56:21.824Z,4832.00
2018-06-30T08:57:21.825Z,4860.00
2018-06-30T08:58:21.833Z,4888.00
2018-06-30T08:59:21.836Z,4940.00
2018-06-30T09:00:21.843Z,4980.00
2018-06-30T09:01:21.856Z,5028.00
2018-06-30T09:02:21.855Z,5068.00
2018-06-30T09:03:21.862Z,5088.00
2018-06-30T09:04:21.869Z,5144.00
2018-06-30T09:05:21.879Z,5208.00
2018-06-30T09:06:21.965Z,5236.00
2018-06-30T09:07:21.889Z,5272.00
2018-06-30T09:08:21.894Z,5328.00
2018-06-30T09:09:21.899Z,5368.00
2018-06-30T09:10:21.906Z,5432.00
2018-06-30T09:11:21.916Z,5460.00
2018-06-30T09:12:22.010Z,5516.00
2018-06-30T09:13:21.928Z,5600.00
2018-06-30T09:14:21.937Z,5660.00
2018-06-30T09:15:21.941Z,5716.00
2018-06-30T09:16:21.951Z,5832.00
2018-06-30T09:17:21.957Z,5992.00
2018-06-30T09:18:21.969Z,6212.00
2018-06-30T09:19:21.974Z,6376.00
2018-06-30T09:20:21.987Z,6576.00
2018-06-30T09:21:22.005Z,6868.00
2018-06-30T09:22:21.993Z,7128.00
2018-06-30T09:23:22.024Z,7688.00
2018-06-30T09:24:22.010Z,8448.00
2018-06-30T09:25:22.017Z,9188.00
2018-06-30T09:26:22.024Z,9900.00
2018-06-30T09:27:22.032Z,10792.00
2018-06-30T09:28:22.041Z,11432.00
2018-06-30T09:29:22.050Z,12088.00
2018-06-30T09:30:22.056Z,12792.00
2018-06-30T09:31:22.068Z,13152.00
2018-06-30T09:32:22.075Z,13788.00
2018-06-30T09:33:22.083Z,14656.00
2018-06-30T09:34:22.091Z,15304.00
2018-06-30T09:35:22.100Z,15964.00
2018-06-30T09:36:22.115Z,16736.00
2018-06-30T09:37:22.120Z,17248.00
2018-06-30T09:38:22.133Z,18112.00
2018-06-30T09:39:22.140Z,19392.00
2018-06-30T09:40:22.147Z,20704.00
2018-06-30T09:41:22.155Z,21088.00
2018-06-30T09:42:22.168Z,21472.00
2018-06-30T09:43:22.192Z,22176.00
2018-06-30T09:44:22.243Z,22720.00
2018-06-30T09:45:22.194Z,22784.00
2018-06-30T09:46:22.207Z,22848.00
2018-06-30T09:47:22.212Z,22176.00
2018-06-30T09:48:22.221Z,22304.00
2018-06-30T09:49:22.230Z,22912.00
2018-06-30T09:50:22.251Z,22912.00
2018-06-30T09:51:22.250Z,22304.00
2018-06-30T09:52:22.257Z,23296.00
2018-06-30T09:53:22.268Z,25632.00
2018-06-30T09:54:22.277Z,26880.00
2018-06-30T09:55:22.287Z,26656.00
2018-06-30T09:56:22.303Z,25440.00
2018-06-30T09:57:22.317Z,25888.00
2018-06-30T09:58:22.318Z,26624.00
2018-06-30T09:59:22.325Z,26016.00
2018-06-30T10:00:22.335Z,24480.00
2018-06-30T10:01:22.351Z,25216.00
2018-06-30T10:02:22.355Z,27392.00
2018-06-30T10:03:22.369Z,29792.00
2018-06-30T10:04:22.375Z,31680.00
2018-06-30T10:05:22.387Z,32992.00
2018-06-30T10:06:22.393Z,33248.00
2018-06-30T10:07:22.424Z,31136.00
2018-06-30T10:08:22.413Z,27008.00
2018-06-30T10:09:22.424Z,25440.00
2018-06-30T10:10:22.432Z,28736.00
2018-06-30T10:11:22.478Z,32448.00
2018-06-30T10:12:22.457Z,31584.00
2018-06-30T10:13:22.468Z,28192.00
2018-06-30T10:14:22.472Z,26752.00
2018-06-30T10:15:22.483Z,27296.00
2018-06-30T10:16:22.498Z,30112.00
2018-06-30T10:17:22.506Z,32704.00
2018-06-30T10:18:22.538Z,32992.00
2018-06-30T10:19:22.535Z,30272.00
2018-06-30T10:20:22.537Z,27584.00
2018-06-30T10:21:22.549Z,27840.00
2018-06-30T10:22:22.556Z,29472.00
2018-06-30T10:23:22.574Z,29184.00
2018-06-30T10:24:22.581Z,28960.00
2018-06-30T10:25:22.614Z,31168.00
2018-06-30T10:26:22.608Z,34880.00
2018-06-30T10:27:22.607Z,37376.00
2018-06-30T10:28:22.624Z,36992.00
2018-06-30T10:29:22.629Z,37856.00
2018-06-30T10:30:22.641Z,39232.00
2018-06-30T10:31:22.716Z,38336.00
2018-06-30T10:32:22.674Z,36000.00
2018-06-30T10:33:22.676Z,35200.00
2018-06-30T10:34:22.680Z,38336.00
2018-06-30T10:35:22.689Z,40992.00
2018-06-30T10:36:22.701Z,38944.00
2018-06-30T10:37:22.756Z,35552.00
2018-06-30T10:38:22.719Z,33600.00
2018-06-30T10:39:22.731Z,33280.00
2018-06-30T10:40:22.756Z,34016.00
2018-06-30T10:41:22.752Z,34336.00
2018-06-30T10:42:22.762Z,35040.00
2018-06-30T10:43:22.779Z,35808.00
2018-06-30T10:44:22.795Z,35552.00
2018-06-30T10:45:22.796Z,34144.00
2018-06-30T10:46:22.803Z,32992.00
2018-06-30T10:47:22.813Z,32896.00
2018-06-30T10:48:22.824Z,31776.00
2018-06-30T10:49:22.846Z,30240.00
2018-06-30T10:50:22.845Z,32000.00
2018-06-30T10:51:22.855Z,37312.00
2018-06-30T10:52:22.867Z,40672.00
2018-06-30T10:53:22.876Z,40064.00
2018-06-30T10:54:22.886Z,38208.00
2018-06-30T10:55:22.918Z,39072.00
2018-06-30T10:56:23.020Z,42464.00
2018-06-30T10:57:22.923Z,43840.00
2018-06-30T10:58:22.932Z,42688.00
2018-06-30T10:59:22.940Z,40768.00
2018-06-30T11:00:23.050Z,41664.00
2018-06-30T11:01:22.965Z,43904.00
2018-06-30T11:02:23.046Z,46304.00
2018-06-30T11:03:22.992Z,47520.00
2018-06-30T11:04:23.087Z,47936.00
2018-06-30T11:05:23.713Z,47168.00
2018-06-30T11:06:23.032Z,46816.00
2018-06-30T11:07:23.028Z,46496.00
2018-06-30T11:08:23.046Z,45696.00
2018-06-30T11:09:23.050Z,45312.00
2018-06-30T11:10:23.060Z,46048.00
2018-06-30T11:11:23.072Z,47744.00
2018-06-30T11:12:23.087Z,48960.00
2018-06-30T11:13:23.715Z,47808.00
2018-06-30T11:14:24.117Z,46624.00
2018-06-30T11:15:23.115Z,46240.00
2018-06-30T11:16:23.125Z,46912.00
2018-06-30T11:17:23.136Z,47200.00
2018-06-30T11:18:23.146Z,47136.00
2018-06-30T11:19:23.159Z,46816.00
2018-06-30T11:20:23.168Z,47232.00
2018-06-30T11:21:23.182Z,48192.00
2018-06-30T11:22:23.872Z,49504.00
2018-06-30T11:23:24.011Z,49472.00
2018-06-30T11:24:23.540Z,47616.00
2018-06-30T11:25:23.223Z,44736.00
2018-06-30T11:26:23.243Z,43392.00
2018-06-30T11:27:23.246Z,44768.00
2018-06-30T11:28:23.263Z,47680.00
2018-06-30T11:29:23.355Z,51040.00
2018-06-30T11:30:23.318Z,52480.00
2018-06-30T11:31:23.575Z,53280.00
2018-06-30T11:32:23.298Z,52864.00
2018-06-30T11:33:23.310Z,53408.00
2018-06-30T11:34:23.318Z,54944.00
2018-06-30T11:35:23.331Z,55584.00
2018-06-30T11:36:23.347Z,55328.00
2018-06-30T11:37:23.357Z,54944.00
2018-06-30T11:38:23.365Z,53376.00
2018-06-30T11:39:23.376Z,52160.00
2018-06-30T11:40:23.387Z,51648.00
2018-06-30T11:41:23.396Z,51584.00
2018-06-30T11:42:23.407Z,52256.00
2018-06-30T11:43:23.417Z,53920.00
2018-06-30T11:44:23.428Z,54816.00
2018-06-30T11:45:23.440Z,55776.00
2018-06-30T11:46:23.456Z,55072.00
2018-06-30T11:47:23.461Z,55680.00
2018-06-30T11:48:23.473Z,56288.00
2018-06-30T11:49:23.485Z,56800.00
2018-06-30T11:50:23.538Z,57248.00
2018-06-30T11:51:23.509Z,56832.00
2018-06-30T11:52:23.527Z,54656.00
2018-06-30T11:53:23.530Z,51072.00
2018-06-30T11:54:23.538Z,46816.00
2018-06-30T11:55:23.549Z,44000.00
2018-06-30T11:56:23.562Z,42848.00
2018-06-30T11:57:23.574Z,42624.00
2018-06-30T11:58:23.583Z,44608.00
2018-06-30T11:59:23.602Z,48448.00
2018-06-30T12:00:23.605Z,53056.00
2018-06-30T12:01:23.640Z,55232.00
2018-06-30T12:02:23.627Z,54208.00
2018-06-30T12:03:23.671Z,52192.00
2018-06-30T12:04:24.739Z,52544.00
2018-06-30T12:05:23.665Z,55840.00
2018-06-30T12:06:23.673Z,58560.00
2018-06-30T12:07:23.690Z,59936.00
2018-06-30T12:08:23.695Z,59264.00
2018-06-30T12:09:23.818Z,57408.00
2018-06-30T12:10:23.719Z,56032.00
2018-06-30T12:11:23.730Z,55904.00
2018-06-30T12:12:23.740Z,57344.00
2018-06-30T12:13:23.755Z,58080.00
2018-06-30T12:14:23.764Z,58976.00
2018-06-30T12:15:23.776Z,59296.00
2018-06-30T12:16:23.786Z,58720.00
2018-06-30T12:17:23.797Z,58976.00
2018-06-30T12:18:23.809Z,58944.00